Mapleton, Iowa
Current Conditions -  °F | °C
As of 9:15 AM on Thursday 23 Oct 2014 (Local Time) from KDNS Reporting Station
Overcast Overcast  
Wind Chill: 57°   Ceiling: 1100
Heat Index: 57°   Visibility: 9mi
Dew Point: 57°   Wind: 6mph
Humidity: 100%   Direction: 310°NW
Pressure: 30.04"   Gusts: NA
Location:  42.17°N, 95.79°W
Report Text: KDNS 231415Z AUTO 31005KT 9SM FEW006 BKN011 OVC016 14/14 A3004 RMK AO2
Loading
Personal Weather Stations






























Interactive Weather Map
Tropical Storm Tracking
New forecast layout! Learn more

10-Day Weather Forecast

Advertisements
Track Severe Weather on mobile